WetterOnline ( http://www.wetteronline.de )

Wetter aktuell Altmark

Aktuelles Wetter: Seehausen (23m)

6-stündlich | Neueste Meldungen
Ortszeit Temperatur Wetter
Mi, 14.11. 7:00 6.2° C bedeckt
Mi, 14.11. 1:00 8.3° C wolkenlos
Di, 13.11. 19:00 9.0° C wolkenlos
Di, 13.11. 13:00 12.5° C wolkig
Di, 13.11. 7:00 10.0° C Sprühregen
Di, 13.11. 1:00 12.0° C wolkig
Mo, 12.11. 19:00 14.3° C bewölkt
Mo, 12.11. 13:00 13.1° C bewölkt
Ortszeit Temperatur Wetter
Mi, 14.11. 8:00 6.8° C bewölkt
Mi, 14.11. 7:50 6.8° C bewölkt
Mi, 14.11. 7:40 6.6° C bewölkt
Mi, 14.11. 7:30 6.1° C bewölkt
Mi, 14.11. 7:20 6.1° C bewölkt
Mi, 14.11. 7:10 6.2° C wolkig
Mi, 14.11. 7:00 6.2° C bedeckt
Mi, 14.11. 6:30 6.3° C bewölkt
Mi, 14.11. 6:00 6.4° C leicht bewölkt
Mi, 14.11. 5:30 6.9° C wolkenlos
Mi, 14.11. 5:00 7.0° C fast wolkenlos
Ortszeit Relative Feuchte Sichtweite
Mi, 14.11. 7:00 95% 5.0 km
Mi, 14.11. 1:00 84% 27 km
Di, 13.11. 19:00 83% 35 km
Di, 13.11. 13:00 83% 16 km
Di, 13.11. 7:00 95% 5.0 km
Di, 13.11. 1:00 85% 22 km
Mo, 12.11. 19:00 70% 55 km
Mo, 12.11. 13:00 79% 28 km
Ortszeit Relative Feuchte Sichtweite
Mi, 14.11. 8:00 95% 4.5 km
Mi, 14.11. 7:50 95% -
Mi, 14.11. 7:40 95% -
Mi, 14.11. 7:30 95% 5.0 km
Mi, 14.11. 7:20 95% -
Mi, 14.11. 7:10 95% -
Mi, 14.11. 7:00 95% 5.0 km
Mi, 14.11. 6:30 94% 6 km
Mi, 14.11. 6:00 93% 8 km
Mi, 14.11. 5:30 92% 9 km
Mi, 14.11. 5:00 91% 10 km
Ortszeit Niederschlagsmenge Niederschlagsart
Mi, 14.11. 7:00 0.0 l/m2 in 12 Std. -
Mi, 14.11. 1:00 0.0 l/m2 in 6 Std. -
Di, 13.11. 19:00 2 l/m2 in 12 Std. Regen
Di, 13.11. 13:00 2 l/m2 in 6 Std. Regen
Di, 13.11. 7:00 0.2 l/m2 in 12 Std. Regen
Di, 13.11. 1:00 0.1 l/m2 in 6 Std. Regen
Mo, 12.11. 19:00 0.4 l/m2 in 12 Std. -
Mo, 12.11. 13:00 0.4 l/m2 in 6 Std. Regen
Ortszeit Niederschlagsmenge Niederschlagsart
Mi, 14.11. 8:00 0.0 l/m2 in 1 Std. -
Mi, 14.11. 7:50 keine Meldung -
Mi, 14.11. 7:40 keine Meldung -
Mi, 14.11. 7:30 0.0 l/m2 in 1 Std. -
Mi, 14.11. 7:20 keine Meldung -
Mi, 14.11. 7:10 keine Meldung -
Mi, 14.11. 7:00 0.0 l/m2 in 1 Std. -
Mi, 14.11. 6:30 0.0 l/m2 in 1 Std. -
Mi, 14.11. 6:00 0.0 l/m2 in 1 Std. -
Mi, 14.11. 5:30 0.0 l/m2 in 1 Std. -
Mi, 14.11. 5:00 0.0 l/m2 in 1 Std. -
Ortszeit Stärke Spitze Richtung
km/h Bft. km/h Grad Sektor
Mi, 14.11. 7:00 11 2 32 230° SW
Mi, 14.11. 1:00 17 3 31 250° W
Di, 13.11. 19:00 11 2 32 230° SW
Di, 13.11. 13:00 19 3 30 240° SW
Di, 13.11. 7:00 7 2 25 190° S
Di, 13.11. 1:00 14 3 29 260° W
Mo, 12.11. 19:00 11 2 30 170° S
Mo, 12.11. 13:00 13 3 28 150° SO
Ortszeit Stärke Spitze Richtung
km/h Bft. km/h Grad Sektor
Mi, 14.11. 8:00 17 3 24 240° SW
Mi, 14.11. 7:50 17 3 - 240° SW
Mi, 14.11. 7:40 14 3 - 240° SW
Mi, 14.11. 7:30 14 3 22 230° SW
Mi, 14.11. 7:20 14 3 - 230° SW
Mi, 14.11. 7:10 13 3 - 220° SW
Mi, 14.11. 7:00 11 2 18 230° SW
Mi, 14.11. 6:30 13 3 19 230° SW
Mi, 14.11. 6:00 11 2 25 230° SW
Mi, 14.11. 5:30 15 3 24 240° SW
Mi, 14.11. 5:00 13 3 22 240° SW
Ortszeit Untergrenze Bedeckung Gattung
total tief tief mittel hoch
Mi, 14.11. 7:00 6300 m 8/8 8/8 - - -
Mi, 14.11. 1:00 - 0/8 0/8 - - -
Di, 13.11. 19:00 - 0/8 0/8 - - -
Di, 13.11. 13:00 480 m 6/8 6/8 - - -
Di, 13.11. 7:00 1500 m 7/8 7/8 - - -
Di, 13.11. 1:00 1290 m 8/8 3/8 - - -
Mo, 12.11. 19:00 3000 m 8/8 4/8 - - -
Mo, 12.11. 13:00 2400 m 8/8 7/8 - - -
Ortszeit Bedeckungsgrad in Achtel und Wolkenuntergrenze
Mi, 14.11. 8:00 7(120m) 7(6600m) 8(9000m)
Mi, 14.11. 7:50 7(120m) 7(6600m) 8(9000m)
Mi, 14.11. 7:40 5(150m) 7(6600m) 8(9000m)
Mi, 14.11. 7:30 6(6600m) 8(9000m) 8(10500m)
Mi, 14.11. 7:20 6(6600m) 8(9000m) 8(10500m)
Mi, 14.11. 7:10 1(6000m) 8(9000m) 8(10500m)
Mi, 14.11. 7:00 6(6300m) 8(6900m) 8(9000m)
Mi, 14.11. 6:30 4(6300m) 8(7200m) 8(9000m)
Mi, 14.11. 6:00 4(7500m) 6(9000m)
Mi, 14.11. 5:30 keine Wolken
Mi, 14.11. 5:00 1(2100m)
Ortszeit Luftdruck NN (hPa) Tendenz (hPa in 3 Std.)
Mi, 14.11. 7:00 1028 + 0,3
Mi, 14.11. 1:00 1027 + 1,2
Di, 13.11. 19:00 1024 + 2,2
Di, 13.11. 13:00 1021 + 0,1
Di, 13.11. 7:00 1020 + 0,2
Di, 13.11. 1:00 1018 + 1,4
Mo, 12.11. 19:00 1014 + 0,2
Mo, 12.11. 13:00 1015 - 1,0
Ortszeit Luftdruck NN (hPa) Tendenz (hPa in 3 Std.)
Mi, 14.11. 8:00 1029 + 0,9
Mi, 14.11. 7:50 1029 keine Meldung
Mi, 14.11. 7:40 1029 keine Meldung
Mi, 14.11. 7:30 1028 + 0,8
Mi, 14.11. 7:20 1028 keine Meldung
Mi, 14.11. 7:10 1028 keine Meldung
Mi, 14.11. 7:00 1028 + 0,3
Mi, 14.11. 6:30 1028 + 0,3
Mi, 14.11. 6:00 1028 + 0,4
Mi, 14.11. 5:30 1028 + 0,6
Mi, 14.11. 5:00 1028 + 0,5
Ortszeit Schneehöhe (cm)
Mi, 14.11. 7:00 0
Mi, 14.11. 1:00 0
Di, 13.11. 19:00 0
Di, 13.11. 13:00 0
Di, 13.11. 7:00 0
Di, 13.11. 1:00 0
Mo, 12.11. 19:00 0
Mo, 12.11. 13:00 0
Ortszeit Schneehöhe (cm)
Mi, 14.11. 8:00 0
Mi, 14.11. 7:50 0
Mi, 14.11. 7:40 0
Mi, 14.11. 7:30 0
Mi, 14.11. 7:20 0
Mi, 14.11. 7:10 0
Mi, 14.11. 7:00 0
Mi, 14.11. 6:30 0
Mi, 14.11. 6:00 0
Mi, 14.11. 5:30 0
Mi, 14.11. 5:00 0
Link zu dieser Seite / Seite empfehlen

Das Wetter in ...